sensor_id;sensor_type;location;lat;lon;timestamp;pressure;altitude;pressure_sealevel;temperature;humidity
3150;BME280;32503;47.748;8.960;2024-01-15T00:01:09;95894.16;;;2.93;66.09
3150;BME280;32503;47.748;8.960;2024-01-15T00:03:37;95896.81;;;2.93;65.80
3150;BME280;32503;47.748;8.960;2024-01-15T00:06:05;95890.38;;;2.94;66.09
3150;BME280;32503;47.748;8.960;2024-01-15T00:08:32;95878.59;;;2.95;65.72
3150;BME280;32503;47.748;8.960;2024-01-15T00:10:59;95889.72;;;2.97;66.03
3150;BME280;32503;47.748;8.960;2024-01-15T00:13:26;95887.94;;;3.01;65.91
3150;BME280;32503;47.748;8.960;2024-01-15T00:15:53;95893.28;;;3.01;65.68
3150;BME280;32503;47.748;8.960;2024-01-15T00:18:20;95900.97;;;3.03;65.41
3150;BME280;32503;47.748;8.960;2024-01-15T00:20:49;95890.94;;;3.00;65.76
3150;BME280;32503;47.748;8.960;2024-01-15T00:23:16;95875.38;;;3.02;65.75
3150;BME280;32503;47.748;8.960;2024-01-15T00:25:43;95863.47;;;2.99;65.38
3150;BME280;32503;47.748;8.960;2024-01-15T00:28:10;95881.31;;;3.08;65.65
3150;BME280;32503;47.748;8.960;2024-01-15T00:30:37;95873.28;;;3.08;65.21
3150;BME280;32503;47.748;8.960;2024-01-15T00:33:04;95873.03;;;3.00;65.44
3150;BME280;32503;47.748;8.960;2024-01-15T00:35:31;95872.72;;;3.02;65.45
3150;BME280;32503;47.748;8.960;2024-01-15T00:38:00;95874.91;;;3.00;65.36
3150;BME280;32503;47.748;8.960;2024-01-15T00:40:27;95874.47;;;2.98;65.16
3150;BME280;32503;47.748;8.960;2024-01-15T00:42:54;95876.88;;;2.91;65.92
3150;BME280;32503;47.748;8.960;2024-01-15T00:45:21;95874.34;;;2.94;65.56
3150;BME280;32503;47.748;8.960;2024-01-15T00:47:49;95864.00;;;2.93;65.66
3150;BME280;32503;47.748;8.960;2024-01-15T00:50:16;95867.13;;;2.95;65.43
3150;BME280;32503;47.748;8.960;2024-01-15T00:52:46;95863.22;;;2.92;65.47
3150;BME280;32503;47.748;8.960;2024-01-15T00:55:14;95863.41;;;2.87;65.78
3150;BME280;32503;47.748;8.960;2024-01-15T00:57:41;95871.19;;;2.80;65.67
3150;BME280;32503;47.748;8.960;2024-01-15T01:00:09;95861.41;;;2.84;65.59
3150;BME280;32503;47.748;8.960;2024-01-15T01:02:37;95867.66;;;2.88;65.71
3150;BME280;32503;47.748;8.960;2024-01-15T01:05:05;95868.75;;;2.87;65.33
3150;BME280;32503;47.748;8.960;2024-01-15T01:07:32;95876.75;;;2.87;65.32
3150;BME280;32503;47.748;8.960;2024-01-15T01:09:59;95876.13;;;2.90;65.57
3150;BME280;32503;47.748;8.960;2024-01-15T01:12:27;95881.22;;;2.83;65.33
3150;BME280;32503;47.748;8.960;2024-01-15T01:14:55;95885.91;;;2.86;65.18
3150;BME280;32503;47.748;8.960;2024-01-15T01:17:22;95900.53;;;2.80;65.73
3150;BME280;32503;47.748;8.960;2024-01-15T01:19:50;95894.75;;;2.78;65.60
3150;BME280;32503;47.748;8.960;2024-01-15T01:22:17;95897.63;;;2.73;65.28
3150;BME280;32503;47.748;8.960;2024-01-15T01:24:44;95895.28;;;2.71;65.53
3150;BME280;32503;47.748;8.960;2024-01-15T01:27:11;95903.59;;;2.70;65.36
3150;BME280;32503;47.748;8.960;2024-01-15T01:29:39;95897.16;;;2.71;65.20
3150;BME280;32503;47.748;8.960;2024-01-15T01:32:06;95911.41;;;2.75;65.22
3150;BME280;32503;47.748;8.960;2024-01-15T01:34:39;95916.63;;;2.71;65.30
3150;BME280;32503;47.748;8.960;2024-01-15T01:37:07;95913.00;;;2.76;65.51
3150;BME280;32503;47.748;8.960;2024-01-15T01:39:34;95919.88;;;2.77;65.36
3150;BME280;32503;47.748;8.960;2024-01-15T01:42:01;95918.06;;;2.69;65.80
3150;BME280;32503;47.748;8.960;2024-01-15T01:44:28;95915.06;;;2.70;65.45
3150;BME280;32503;47.748;8.960;2024-01-15T01:46:56;95931.09;;;2.70;65.53
3150;BME280;32503;47.748;8.960;2024-01-15T01:49:25;95912.34;;;2.58;65.63
3150;BME280;32503;47.748;8.960;2024-01-15T01:51:53;95924.09;;;2.57;65.45
3150;BME280;32503;47.748;8.960;2024-01-15T01:54:24;95930.84;;;2.63;65.19
3150;BME280;32503;47.748;8.960;2024-01-15T01:56:52;95928.81;;;2.60;65.59
3150;BME280;32503;47.748;8.960;2024-01-15T01:59:19;95923.78;;;2.58;65.70
3150;BME280;32503;47.748;8.960;2024-01-15T02:01:48;95921.69;;;2.64;65.03
3150;BME280;32503;47.748;8.960;2024-01-15T02:04:18;95914.66;;;2.59;64.19
3150;BME280;32503;47.748;8.960;2024-01-15T02:06:45;95903.53;;;2.57;63.50
3150;BME280;32503;47.748;8.960;2024-01-15T02:09:12;95906.19;;;2.57;62.56
3150;BME280;32503;47.748;8.960;2024-01-15T02:11:40;95908.28;;;2.52;61.61
3150;BME280;32503;47.748;8.960;2024-01-15T02:14:09;95902.38;;;2.46;61.40
3150;BME280;32503;47.748;8.960;2024-01-15T02:16:36;95916.63;;;2.50;61.04
3150;BME280;32503;47.748;8.960;2024-01-15T02:19:04;95918.19;;;2.51;60.62
3150;BME280;32503;47.748;8.960;2024-01-15T02:21:32;95911.59;;;2.49;60.35
3150;BME280;32503;47.748;8.960;2024-01-15T02:24:01;95920.16;;;2.42;60.06
3150;BME280;32503;47.748;8.960;2024-01-15T02:26:28;95911.66;;;2.40;60.12
3150;BME280;32503;47.748;8.960;2024-01-15T02:28:56;95905.88;;;2.38;59.99
3150;BME280;32503;47.748;8.960;2024-01-15T02:31:23;95897.16;;;2.28;59.81
3150;BME280;32503;47.748;8.960;2024-01-15T02:33:50;95899.38;;;2.26;59.78
3150;BME280;32503;47.748;8.960;2024-01-15T02:36:17;95907.56;;;2.21;59.90
3150;BME280;32503;47.748;8.960;2024-01-15T02:38:44;95904.13;;;2.21;60.00
3150;BME280;32503;47.748;8.960;2024-01-15T02:41:12;95905.66;;;2.22;60.59
3150;BME280;32503;47.748;8.960;2024-01-15T02:43:42;95897.19;;;2.20;59.98
3150;BME280;32503;47.748;8.960;2024-01-15T02:46:09;95908.00;;;2.23;60.19
3150;BME280;32503;47.748;8.960;2024-01-15T02:48:36;95900.00;;;2.23;59.68
3150;BME280;32503;47.748;8.960;2024-01-15T02:51:03;95903.94;;;2.26;60.00
3150;BME280;32503;47.748;8.960;2024-01-15T02:53:30;95902.66;;;2.23;60.00
3150;BME280;32503;47.748;8.960;2024-01-15T02:55:57;95907.69;;;2.25;59.49
3150;BME280;32503;47.748;8.960;2024-01-15T02:58:26;95909.72;;;2.28;59.29
3150;BME280;32503;47.748;8.960;2024-01-15T03:00:53;95905.16;;;2.28;59.07
3150;BME280;32503;47.748;8.960;2024-01-15T03:03:20;95912.38;;;2.28;58.75
3150;BME280;32503;47.748;8.960;2024-01-15T03:05:47;95917.03;;;2.31;58.45
3150;BME280;32503;47.748;8.960;2024-01-15T03:08:14;95903.72;;;2.31;58.71
3150;BME280;32503;47.748;8.960;2024-01-15T03:10:41;95903.84;;;2.35;58.78
3150;BME280;32503;47.748;8.960;2024-01-15T03:13:08;95896.97;;;2.34;58.29
3150;BME280;32503;47.748;8.960;2024-01-15T03:15:36;95893.97;;;2.35;58.39
3150;BME280;32503;47.748;8.960;2024-01-15T03:18:04;95902.31;;;2.34;58.39
3150;BME280;32503;47.748;8.960;2024-01-15T03:20:31;95897.16;;;2.28;58.36
3150;BME280;32503;47.748;8.960;2024-01-15T03:22:58;95899.94;;;2.32;58.78
3150;BME280;32503;47.748;8.960;2024-01-15T03:25:25;95896.97;;;2.34;58.47
3150;BME280;32503;47.748;8.960;2024-01-15T03:27:52;95895.19;;;2.38;58.24
3150;BME280;32503;47.748;8.960;2024-01-15T03:30:19;95894.75;;;2.36;58.43
3150;BME280;32503;47.748;8.960;2024-01-15T03:32:47;95889.59;;;2.31;58.57
3150;BME280;32503;47.748;8.960;2024-01-15T03:35:15;95876.13;;;2.27;58.34
3150;BME280;32503;47.748;8.960;2024-01-15T03:37:42;95873.47;;;2.27;58.62
3150;BME280;32503;47.748;8.960;2024-01-15T03:40:11;95879.78;;;2.22;58.96
3150;BME280;32503;47.748;8.960;2024-01-15T03:42:38;95872.25;;;2.24;58.91
3150;BME280;32503;47.748;8.960;2024-01-15T03:45:06;95875.38;;;2.26;59.14
3150;BME280;32503;47.748;8.960;2024-01-15T03:47:33;95881.94;;;2.29;58.99
3150;BME280;32503;47.748;8.960;2024-01-15T03:50:01;95878.47;;;2.28;58.72
3150;BME280;32503;47.748;8.960;2024-01-15T03:52:28;95891.38;;;2.26;58.90
3150;BME280;32503;47.748;8.960;2024-01-15T03:54:55;95881.94;;;2.29;58.81
3150;BME280;32503;47.748;8.960;2024-01-15T03:57:22;95886.94;;;2.31;58.49
3150;BME280;32503;47.748;8.960;2024-01-15T03:59:49;95876.28;;;2.31;58.36
3150;BME280;32503;47.748;8.960;2024-01-15T04:02:16;95870.03;;;2.26;58.80
3150;BME280;32503;47.748;8.960;2024-01-15T04:04:43;95872.09;;;2.21;58.82
3150;BME280;32503;47.748;8.960;2024-01-15T04:07:12;95885.38;;;2.30;58.54
3150;BME280;32503;47.748;8.960;2024-01-15T04:09:39;95881.28;;;2.32;58.60
3150;BME280;32503;47.748;8.960;2024-01-15T04:12:06;95874.06;;;2.33;58.80
3150;BME280;32503;47.748;8.960;2024-01-15T04:14:33;95878.28;;;2.34;59.04
3150;BME280;32503;47.748;8.960;2024-01-15T04:17:00;95877.66;;;2.37;58.50
3150;BME280;32503;47.748;8.960;2024-01-15T04:19:27;95873.41;;;2.36;58.26
3150;BME280;32503;47.748;8.960;2024-01-15T04:21:54;95877.16;;;2.35;58.38
3150;BME280;32503;47.748;8.960;2024-01-15T04:24:23;95871.06;;;2.34;57.95
3150;BME280;32503;47.748;8.960;2024-01-15T04:26:50;95873.41;;;2.36;58.40
3150;BME280;32503;47.748;8.960;2024-01-15T04:29:17;95873.53;;;2.39;58.06
3150;BME280;32503;47.748;8.960;2024-01-15T04:31:44;95869.16;;;2.35;57.53
3150;BME280;32503;47.748;8.960;2024-01-15T04:34:11;95865.16;;;2.28;57.54
3150;BME280;32503;47.748;8.960;2024-01-15T04:36:39;95882.25;;;2.27;57.94
3150;BME280;32503;47.748;8.960;2024-01-15T04:39:07;95857.72;;;2.13;58.03
3150;BME280;32503;47.748;8.960;2024-01-15T04:41:38;95862.72;;;2.15;58.58
3150;BME280;32503;47.748;8.960;2024-01-15T04:44:05;95862.84;;;2.18;58.34
3150;BME280;32503;47.748;8.960;2024-01-15T04:46:32;95882.25;;;2.27;58.93
3150;BME280;32503;47.748;8.960;2024-01-15T04:48:59;95872.50;;;2.32;59.31
3150;BME280;32503;47.748;8.960;2024-01-15T04:51:26;95874.06;;;2.33;59.50
3150;BME280;32503;47.748;8.960;2024-01-15T04:53:53;95874.50;;;2.35;59.73
3150;BME280;32503;47.748;8.960;2024-01-15T04:56:20;95872.63;;;2.35;59.94
3150;BME280;32503;47.748;8.960;2024-01-15T04:58:49;95866.19;;;2.36;60.27
3150;BME280;32503;47.748;8.960;2024-01-15T05:01:16;95860.53;;;2.38;60.35
3150;BME280;32503;47.748;8.960;2024-01-15T05:03:43;95871.19;;;2.38;60.54
3150;BME280;32503;47.748;8.960;2024-01-15T05:06:10;95864.56;;;2.44;60.62
3150;BME280;32503;47.748;8.960;2024-01-15T05:08:37;95865.66;;;2.43;60.57
3150;BME280;32503;47.748;8.960;2024-01-15T05:11:04;95866.91;;;2.45;61.00
3150;BME280;32503;47.748;8.960;2024-01-15T05:13:31;95864.56;;;2.44;60.52
3150;BME280;32503;47.748;8.960;2024-01-15T05:16:00;95869.47;;;2.42;60.53
3150;BME280;32503;47.748;8.960;2024-01-15T05:18:27;95871.44;;;2.45;60.45
3150;BME280;32503;47.748;8.960;2024-01-15T05:20:54;95871.44;;;2.45;60.57
3150;BME280;32503;47.748;8.960;2024-01-15T05:23:20;95871.91;;;2.47;60.39
3150;BME280;32503;47.748;8.960;2024-01-15T05:25:47;95867.25;;;2.44;60.32
3150;BME280;32503;47.748;8.960;2024-01-15T05:28:14;95863.78;;;2.43;60.31
3150;BME280;32503;47.748;8.960;2024-01-15T05:30:42;95858.56;;;2.47;60.39
3150;BME280;32503;47.748;8.960;2024-01-15T05:33:10;95858.25;;;2.49;60.01
3150;BME280;32503;47.748;8.960;2024-01-15T05:35:37;95855.44;;;2.45;60.65
3150;BME280;32503;47.748;8.960;2024-01-15T05:38:04;95847.63;;;2.40;60.85
3150;BME280;32503;47.748;8.960;2024-01-15T05:40:31;95842.31;;;2.40;60.39
3150;BME280;32503;47.748;8.960;2024-01-15T05:42:58;95843.31;;;2.35;60.45
3150;BME280;32503;47.748;8.960;2024-01-15T05:45:26;95847.50;;;2.36;60.27
3150;BME280;32503;47.748;8.960;2024-01-15T05:47:53;95845.09;;;2.43;59.82
3150;BME280;32503;47.748;8.960;2024-01-15T05:50:23;95835.09;;;2.40;59.98
3150;BME280;32503;47.748;8.960;2024-01-15T05:52:50;95819.03;;;2.28;59.75
3150;BME280;32503;47.748;8.960;2024-01-15T05:55:17;95842.56;;;2.47;59.36
3150;BME280;32503;47.748;8.960;2024-01-15T05:57:44;95821.38;;;2.30;59.73
3150;BME280;32503;47.748;8.960;2024-01-15T06:00:13;95832.75;;;2.39;59.44
3150;BME280;32503;47.748;8.960;2024-01-15T06:02:40;95809.34;;;2.23;59.96
3150;BME280;32503;47.748;8.960;2024-01-15T06:05:07;95831.63;;;2.40;60.04
3150;BME280;32503;47.748;8.960;2024-01-15T06:07:36;95830.88;;;2.39;60.01
3150;BME280;32503;47.748;8.960;2024-01-15T06:10:04;95840.13;;;2.42;59.55
3150;BME280;32503;47.748;8.960;2024-01-15T06:12:31;95828.31;;;2.43;59.85
3150;BME280;32503;47.748;8.960;2024-01-15T06:14:59;95843.38;;;2.47;59.46
3150;BME280;32503;47.748;8.960;2024-01-15T06:17:26;95841.00;;;2.46;59.49
3150;BME280;32503;47.748;8.960;2024-01-15T06:19:53;95843.38;;;2.47;59.53
3150;BME280;32503;47.748;8.960;2024-01-15T06:22:20;95827.22;;;2.44;59.51
3150;BME280;32503;47.748;8.960;2024-01-15T06:24:49;95826.44;;;2.43;59.51
3150;BME280;32503;47.748;8.960;2024-01-15T06:27:16;95811.41;;;2.39;59.08
3150;BME280;32503;47.748;8.960;2024-01-15T06:29:45;95807.69;;;2.31;59.80
3150;BME280;32503;47.748;8.960;2024-01-15T06:32:14;95824.63;;;2.35;61.26
3150;BME280;32503;47.748;8.960;2024-01-15T06:34:43;95821.78;;;2.40;61.09
3150;BME280;32503;47.748;8.960;2024-01-15T06:37:10;95818.56;;;2.47;60.41
3150;BME280;32503;47.748;8.960;2024-01-15T06:39:37;95824.38;;;2.49;60.00
3150;BME280;32503;47.748;8.960;2024-01-15T06:42:06;95819.59;;;2.55;60.07
3150;BME280;32503;47.748;8.960;2024-01-15T06:44:33;95806.34;;;2.46;59.85
3150;BME280;32503;47.748;8.960;2024-01-15T06:47:00;95815.84;;;2.68;60.56
3150;BME280;32503;47.748;8.960;2024-01-15T06:49:28;95812.47;;;2.80;59.77
3150;BME280;32503;47.748;8.960;2024-01-15T06:51:55;95824.91;;;2.76;59.37
3150;BME280;32503;47.748;8.960;2024-01-15T06:54:22;95821.66;;;2.70;59.53
3150;BME280;32503;47.748;8.960;2024-01-15T06:56:51;95827.78;;;2.71;58.91
3150;BME280;32503;47.748;8.960;2024-01-15T06:59:20;95836.44;;;2.68;59.19
3150;BME280;32503;47.748;8.960;2024-01-15T07:01:47;95825.50;;;2.60;58.85
3150;BME280;32503;47.748;8.960;2024-01-15T07:04:14;95847.75;;;2.64;59.31
3150;BME280;32503;47.748;8.960;2024-01-15T07:06:43;95847.81;;;2.56;59.47
3150;BME280;32503;47.748;8.960;2024-01-15T07:09:10;95849.06;;;2.58;59.40
3150;BME280;32503;47.748;8.960;2024-01-15T07:11:37;95860.78;;;2.66;59.40
3150;BME280;32503;47.748;8.960;2024-01-15T07:14:04;95852.44;;;2.68;59.76
3150;BME280;32503;47.748;8.960;2024-01-15T07:16:33;95839.09;;;2.68;59.42
3150;BME280;32503;47.748;8.960;2024-01-15T07:19:00;95844.44;;;2.68;59.79
3150;BME280;32503;47.748;8.960;2024-01-15T07:21:27;95838.47;;;2.71;59.57
3150;BME280;32503;47.748;8.960;2024-01-15T07:23:54;95833.56;;;2.73;59.89
3150;BME280;32503;47.748;8.960;2024-01-15T07:26:21;95835.13;;;2.74;59.78
3150;BME280;32503;47.748;8.960;2024-01-15T07:28:48;95835.38;;;2.81;59.63
3150;BME280;32503;47.748;8.960;2024-01-15T07:31:16;95848.72;;;2.81;59.73
3150;BME280;32503;47.748;8.960;2024-01-15T07:33:44;95846.84;;;2.81;59.86
3150;BME280;32503;47.748;8.960;2024-01-15T07:36:12;95856.75;;;2.81;59.52
3150;BME280;32503;47.748;8.960;2024-01-15T07:38:39;95849.19;;;2.83;59.45
3150;BME280;32503;47.748;8.960;2024-01-15T07:41:06;95841.63;;;2.85;59.32
3150;BME280;32503;47.748;8.960;2024-01-15T07:43:33;95854.63;;;2.87;59.24
3150;BME280;32503;47.748;8.960;2024-01-15T07:46:00;95845.97;;;2.90;59.16
3150;BME280;32503;47.748;8.960;2024-01-15T07:48:28;95837.84;;;2.86;59.35
3150;BME280;32503;47.748;8.960;2024-01-15T07:50:56;95843.44;;;2.93;59.27
3150;BME280;32503;47.748;8.960;2024-01-15T07:53:23;95850.31;;;2.94;59.46
3150;BME280;32503;47.748;8.960;2024-01-15T07:55:52;95841.09;;;2.92;59.40
3150;BME280;32503;47.748;8.960;2024-01-15T07:58:19;95842.50;;;2.89;59.41
3150;BME280;32503;47.748;8.960;2024-01-15T08:00:46;95844.84;;;2.91;59.35
3150;BME280;32503;47.748;8.960;2024-01-15T08:03:13;95847.84;;;2.89;59.66
3150;BME280;32503;47.748;8.960;2024-01-15T08:05:40;95850.84;;;2.88;59.73
3150;BME280;32503;47.748;8.960;2024-01-15T08:08:09;95863.94;;;2.80;59.15
3150;BME280;32503;47.748;8.960;2024-01-15T08:10:36;95860.31;;;2.85;59.09
3150;BME280;32503;47.748;8.960;2024-01-15T08:13:02;95867.41;;;2.81;59.22
3150;BME280;32503;47.748;8.960;2024-01-15T08:15:29;95865.16;;;2.71;59.50
3150;BME280;32503;47.748;8.960;2024-01-15T08:17:56;95845.97;;;2.56;59.95
3150;BME280;32503;47.748;8.960;2024-01-15T08:20:24;95861.03;;;2.73;59.72
3150;BME280;32503;47.748;8.960;2024-01-15T08:22:51;95861.16;;;2.77;59.62
3150;BME280;32503;47.748;8.960;2024-01-15T08:25:19;95857.38;;;2.78;59.53
3150;BME280;32503;47.748;8.960;2024-01-15T08:27:46;95860.63;;;2.83;59.75
3150;BME280;32503;47.748;8.960;2024-01-15T08:30:14;95862.06;;;2.81;59.54
3150;BME280;32503;47.748;8.960;2024-01-15T08:32:41;95863.16;;;2.80;59.71
3150;BME280;32503;47.748;8.960;2024-01-15T08:35:08;95848.00;;;2.72;59.68
3150;BME280;32503;47.748;8.960;2024-01-15T08:37:36;95854.19;;;2.84;59.79
3150;BME280;32503;47.748;8.960;2024-01-15T08:40:04;95866.09;;;2.87;59.66
3150;BME280;32503;47.748;8.960;2024-01-15T08:42:33;95853.88;;;2.86;58.99
3150;BME280;32503;47.748;8.960;2024-01-15T08:45:00;95858.72;;;2.84;59.34
3150;BME280;32503;47.748;8.960;2024-01-15T08:47:27;95865.44;;;2.90;59.29
3150;BME280;32503;47.748;8.960;2024-01-15T08:49:54;95865.75;;;2.89;59.61
3150;BME280;32503;47.748;8.960;2024-01-15T08:52:21;95865.88;;;2.92;59.17
3150;BME280;32503;47.748;8.960;2024-01-15T08:54:48;95863.22;;;2.92;59.23
3150;BME280;32503;47.748;8.960;2024-01-15T08:57:15;95866.53;;;2.89;59.03
3150;BME280;32503;47.748;8.960;2024-01-15T08:59:44;95871.66;;;2.94;59.49
3150;BME280;32503;47.748;8.960;2024-01-15T09:02:11;95848.28;;;2.79;59.43
3150;BME280;32503;47.748;8.960;2024-01-15T09:04:38;95874.78;;;2.96;58.70
3150;BME280;32503;47.748;8.960;2024-01-15T09:07:05;95871.78;;;2.98;58.77
3150;BME280;32503;47.748;8.960;2024-01-15T09:09:33;95854.88;;;2.94;59.04
3150;BME280;32503;47.748;8.960;2024-01-15T09:12:00;95860.59;;;3.04;58.58
3150;BME280;32503;47.748;8.960;2024-01-15T09:14:27;95862.28;;;3.09;58.27
3150;BME280;32503;47.748;8.960;2024-01-15T09:16:56;95858.59;;;3.14;58.41
3150;BME280;32503;47.748;8.960;2024-01-15T09:19:23;95851.38;;;3.14;57.77
3150;BME280;32503;47.748;8.960;2024-01-15T09:21:50;95857.94;;;3.17;58.10
3150;BME280;32503;47.748;8.960;2024-01-15T09:24:17;95851.50;;;3.18;58.14
3150;BME280;32503;47.748;8.960;2024-01-15T09:26:45;95838.47;;;3.16;57.84
3150;BME280;32503;47.748;8.960;2024-01-15T09:29:12;95857.31;;;3.32;58.01
3150;BME280;32503;47.748;8.960;2024-01-15T09:31:41;95865.91;;;3.38;57.51
3150;BME280;32503;47.748;8.960;2024-01-15T09:34:10;95867.22;;;3.44;57.18
3150;BME280;32503;47.748;8.960;2024-01-15T09:36:39;95861.44;;;3.42;56.78
3150;BME280;32503;47.748;8.960;2024-01-15T09:39:08;95859.69;;;3.46;57.06
3150;BME280;32503;47.748;8.960;2024-01-15T09:41:36;95859.00;;;3.49;57.00
3150;BME280;32503;47.748;8.960;2024-01-15T09:44:04;95854.03;;;3.60;56.88
3150;BME280;32503;47.748;8.960;2024-01-15T09:46:33;95850.88;;;3.58;56.93
3150;BME280;32503;47.748;8.960;2024-01-15T09:49:01;95858.25;;;3.61;55.49
3150;BME280;32503;47.748;8.960;2024-01-15T09:51:31;95856.81;;;3.64;56.03
3150;BME280;32503;47.748;8.960;2024-01-15T09:53:58;95863.81;;;3.68;55.98
3150;BME280;32503;47.748;8.960;2024-01-15T09:56:25;95857.59;;;3.64;55.66
3150;BME280;32503;47.748;8.960;2024-01-15T09:58:53;95850.44;;;3.68;56.00
3150;BME280;32503;47.748;8.960;2024-01-15T10:01:20;95853.13;;;3.68;55.47
3150;BME280;32503;47.748;8.960;2024-01-15T10:03:47;95838.31;;;3.71;54.83
3150;BME280;32503;47.748;8.960;2024-01-15T10:06:16;95834.50;;;3.72;54.53
3150;BME280;32503;47.748;8.960;2024-01-15T10:08:49;95838.22;;;3.79;54.71
3150;BME280;32503;47.748;8.960;2024-01-15T10:11:16;95826.81;;;3.83;54.43
3150;BME280;32503;47.748;8.960;2024-01-15T10:13:44;95817.47;;;3.89;54.13
3150;BME280;32503;47.748;8.960;2024-01-15T10:16:11;95808.78;;;3.92;54.17
3150;BME280;32503;47.748;8.960;2024-01-15T10:18:38;95796.31;;;3.71;54.12
3150;BME280;32503;47.748;8.960;2024-01-15T10:21:07;95797.53;;;3.86;54.23
3150;BME280;32503;47.748;8.960;2024-01-15T10:23:34;95795.78;;;3.78;54.56
3150;BME280;32503;47.748;8.960;2024-01-15T10:26:04;95789.84;;;3.85;54.01
3150;BME280;32503;47.748;8.960;2024-01-15T10:28:31;95788.53;;;3.41;54.30
3150;BME280;32503;47.748;8.960;2024-01-15T10:30:59;95758.81;;;3.43;54.41
3150;BME280;32503;47.748;8.960;2024-01-15T10:33:27;95775.81;;;3.75;54.42
3150;BME280;32503;47.748;8.960;2024-01-15T10:35:55;95781.03;;;3.84;54.43
3150;BME280;32503;47.748;8.960;2024-01-15T10:38:23;95774.91;;;3.96;54.73
3150;BME280;32503;47.748;8.960;2024-01-15T10:40:51;95754.72;;;3.98;54.14
3150;BME280;32503;47.748;8.960;2024-01-15T10:43:21;95763.44;;;4.36;53.71
3150;BME280;32503;47.748;8.960;2024-01-15T10:45:50;95744.53;;;4.73;53.11
3150;BME280;32503;47.748;8.960;2024-01-15T10:48:18;95759.31;;;5.30;51.73
3150;BME280;32503;47.748;8.960;2024-01-15T10:50:46;95754.13;;;5.89;50.18
3150;BME280;32503;47.748;8.960;2024-01-15T10:53:17;95743.19;;;6.33;48.86
3150;BME280;32503;47.748;8.960;2024-01-15T10:55:45;95738.09;;;6.28;44.38
3150;BME280;32503;47.748;8.960;2024-01-15T10:58:15;95708.00;;;6.38;44.63
3150;BME280;32503;47.748;8.960;2024-01-15T11:00:44;95725.34;;;6.64;43.30
3150;BME280;32503;47.748;8.960;2024-01-15T11:03:12;95723.34;;;6.80;43.68
3150;BME280;32503;47.748;8.960;2024-01-15T11:05:42;95715.63;;;6.79;43.42
3150;BME280;32503;47.748;8.960;2024-01-15T11:08:10;95737.41;;;6.74;44.00
3150;BME280;32503;47.748;8.960;2024-01-15T11:10:42;95726.84;;;6.84;43.95
3150;BME280;32503;47.748;8.960;2024-01-15T11:13:14;95721.56;;;7.11;44.08
3150;BME280;32503;47.748;8.960;2024-01-15T11:16:04;95731.88;;;7.32;43.68
3150;BME280;32503;47.748;8.960;2024-01-15T11:18:35;95724.50;;;7.52;43.50
3150;BME280;32503;47.748;8.960;2024-01-15T11:21:22;95731.66;;;7.68;42.71
3150;BME280;32503;47.748;8.960;2024-01-15T11:23:52;95743.75;;;7.81;42.17
3150;BME280;32503;47.748;8.960;2024-01-15T11:26:36;95745.00;;;7.87;41.89
3150;BME280;32503;47.748;8.960;2024-01-15T11:29:05;95743.13;;;7.91;41.42
3150;BME280;32503;47.748;8.960;2024-01-15T11:31:59;95732.97;;;8.11;41.72
3150;BME280;32503;47.748;8.960;2024-01-15T11:34:50;95739.16;;;8.12;41.54
3150;BME280;32503;47.748;8.960;2024-01-15T11:37:19;95724.31;;;7.95;42.08
3150;BME280;32503;47.748;8.960;2024-01-15T11:39:46;95735.72;;;8.15;42.28
3150;BME280;32503;47.748;8.960;2024-01-15T11:42:14;95718.94;;;7.95;42.18
3150;BME280;32503;47.748;8.960;2024-01-15T11:44:41;95714.91;;;8.08;42.41
3150;BME280;32503;47.748;8.960;2024-01-15T11:47:11;95711.50;;;8.15;42.24
3150;BME280;32503;47.748;8.960;2024-01-15T11:49:59;95716.19;;;8.22;41.67
3150;BME280;32503;47.748;8.960;2024-01-15T11:52:32;95716.28;;;8.29;41.92
3150;BME280;32503;47.748;8.960;2024-01-15T11:55:19;95712.34;;;8.53;42.74
3150;BME280;32503;47.748;8.960;2024-01-15T11:57:51;95719.84;;;8.70;40.99
3150;BME280;32503;47.748;8.960;2024-01-15T12:00:21;95717.63;;;8.80;40.61
3150;BME280;32503;47.748;8.960;2024-01-15T12:02:50;95723.81;;;8.84;40.29
3150;BME280;32503;47.748;8.960;2024-01-15T12:05:19;95719.16;;;8.77;39.83
3150;BME280;32503;47.748;8.960;2024-01-15T12:07:48;95720.34;;;8.46;39.52
3150;BME280;32503;47.748;8.960;2024-01-15T12:10:17;95715.91;;;8.30;40.29
3150;BME280;32503;47.748;8.960;2024-01-15T12:12:57;95700.03;;;8.22;40.97
3150;BME280;32503;47.748;8.960;2024-01-15T12:15:27;95702.41;;;8.27;40.39
3150;BME280;32503;47.748;8.960;2024-01-15T12:17:57;95702.91;;;8.36;41.12
3150;BME280;32503;47.748;8.960;2024-01-15T12:20:25;95699.47;;;8.39;40.51
3150;BME280;32503;47.748;8.960;2024-01-15T12:22:53;95702.44;;;8.30;40.58
3150;BME280;32503;47.748;8.960;2024-01-15T12:25:21;95701.38;;;8.35;40.89
3150;BME280;32503;47.748;8.960;2024-01-15T12:27:48;95694.75;;;8.29;40.79
3150;BME280;32503;47.748;8.960;2024-01-15T12:30:15;95698.94;;;8.26;41.07
3150;BME280;32503;47.748;8.960;2024-01-15T12:32:43;95695.25;;;8.08;40.52
3150;BME280;32503;47.748;8.960;2024-01-15T12:35:11;95702.34;;;7.89;41.06
3150;BME280;32503;47.748;8.960;2024-01-15T12:37:39;95690.34;;;7.83;41.50
3150;BME280;32503;47.748;8.960;2024-01-15T12:40:08;95708.81;;;7.85;42.22
3150;BME280;32503;47.748;8.960;2024-01-15T12:42:36;95704.94;;;7.82;41.56
3150;BME280;32503;47.748;8.960;2024-01-15T12:45:05;95694.28;;;7.89;41.57
3150;BME280;32503;47.748;8.960;2024-01-15T12:47:34;95703.56;;;7.95;41.94
3150;BME280;32503;47.748;8.960;2024-01-15T12:50:01;95702.75;;;7.91;41.64
3150;BME280;32503;47.748;8.960;2024-01-15T12:52:30;95710.41;;;7.89;41.68
3150;BME280;32503;47.748;8.960;2024-01-15T12:54:57;95707.50;;;7.71;41.92
3150;BME280;32503;47.748;8.960;2024-01-15T12:57:24;95699.88;;;7.77;41.67
3150;BME280;32503;47.748;8.960;2024-01-15T12:59:51;95698.34;;;7.49;42.07
3150;BME280;32503;47.748;8.960;2024-01-15T13:02:18;95703.66;;;7.46;42.99
3150;BME280;32503;47.748;8.960;2024-01-15T13:04:45;95702.19;;;7.48;42.55
3150;BME280;32503;47.748;8.960;2024-01-15T13:07:12;95695.22;;;7.47;42.40
3150;BME280;32503;47.748;8.960;2024-01-15T13:09:41;95682.72;;;7.32;42.93
3150;BME280;32503;47.748;8.960;2024-01-15T13:12:08;95693.88;;;7.34;42.68
3150;BME280;32503;47.748;8.960;2024-01-15T13:14:37;95696.59;;;7.37;42.85
3150;BME280;32503;47.748;8.960;2024-01-15T13:17:04;95689.03;;;7.43;43.35
3150;BME280;32503;47.748;8.960;2024-01-15T13:19:32;95701.47;;;7.55;43.60
3150;BME280;32503;47.748;8.960;2024-01-15T13:21:59;95703.81;;;7.56;43.35
3150;BME280;32503;47.748;8.960;2024-01-15T13:24:26;95701.06;;;7.53;43.43
3150;BME280;32503;47.748;8.960;2024-01-15T13:26:55;95701.16;;;7.60;43.43